Time;durP1;ratioP1;P1;durP2;ratioP2;P2;SDS_P1;SDS_P2;PMS_P1;PMS_P2;Temp;Humidity;BMP_temperature;BMP_pressure;BME280_temperature;BME280_humidity;BME280_pressure;Samples;Min_cycle;Max_cycle;Signal;HPM_P1;HPM_P2
2023/04/14 00:00:11;;;;;;;0.63;0.20;;;11.20;91.20;;;;;;5034062;28;20092;-84
2023/04/14 00:02:37;;;;;;;0.30;0.20;;;11.10;91.10;;;;;;5033550;28;20021;-84
2023/04/14 00:05:03;;;;;;;0.50;0.10;;;11.20;91.00;;;;;;5038782;28;20130;-84
2023/04/14 00:07:29;;;;;;;0.20;0.13;;;11.20;91.20;;;;;;5034044;28;20017;-83
2023/04/14 00:09:54;;;;;;;0.10;0.10;;;11.10;91.30;;;;;;5034242;28;20029;-83
2023/04/14 00:12:20;;;;;;;0.63;0.10;;;11.00;91.50;;;;;;5033542;28;20036;-84
2023/04/14 00:14:46;;;;;;;0.25;0.10;;;11.00;91.50;;;;;;5033759;28;20068;-82
2023/04/14 00:17:11;;;;;;;0.30;0.20;;;11.00;91.40;;;;;;5016465;28;20052;-83
2023/04/14 00:19:37;;;;;;;0.13;0.13;;;11.10;91.50;;;;;;5033388;28;20059;-83
2023/04/14 00:22:03;;;;;;;0.10;0.10;;;11.10;91.50;;;;;;5016041;28;20068;-83
2023/04/14 00:24:28;;;;;;;0.10;0.10;;;11.10;91.60;;;;;;5034061;28;20430;-82
2023/04/14 00:26:55;;;;;;;0.10;0.10;;;11.10;91.60;;;;;;5032901;28;20463;-82
2023/04/14 00:29:21;;;;;;;0.10;0.10;;;11.10;91.80;;;;;;5034632;28;20037;-81
2023/04/14 00:31:47;;;;;;;0.28;0.10;;;11.10;91.90;;;;;;5033296;28;20506;-82
2023/04/14 00:34:12;;;;;;;0.10;0.10;;;11.10;91.80;;;;;;5032769;28;20048;-82
2023/04/14 00:36:38;;;;;;;0.10;0.10;;;11.10;91.90;;;;;;5033591;28;20068;-82
2023/04/14 00:39:04;;;;;;;0.80;0.25;;;11.20;91.80;;;;;;5032271;28;20026;-82
2023/04/14 00:41:33;;;;;;;0.20;0.20;;;11.10;91.80;;;;;;5033112;28;20041;-83
2023/04/14 00:44:00;;;;;;;0.80;0.27;;;11.20;91.90;;;;;;5015071;28;20034;-83
2023/04/14 00:46:26;;;;;;;0.20;0.20;;;11.20;91.90;;;;;;5016146;28;20083;-83
2023/04/14 00:48:54;;;;;;;0.28;0.20;;;11.20;92.00;;;;;;5032978;28;20040;-82
2023/04/14 00:51:19;;;;;;;0.10;0.10;;;11.20;92.00;;;;;;5032869;28;20025;-78
2023/04/14 00:53:45;;;;;;;0.47;0.28;;;11.30;92.10;;;;;;5015175;28;20049;-78
2023/04/14 00:56:11;;;;;;;0.20;0.20;;;11.30;92.00;;;;;;5032799;28;20068;-78
2023/04/14 00:58:37;;;;;;;0.20;0.10;;;11.30;92.00;;;;;;5032984;28;20034;-78
2023/04/14 01:01:03;;;;;;;0.52;0.10;;;11.30;91.90;;;;;;5032553;28;20065;-78
2023/04/14 01:03:29;;;;;;;0.45;0.28;;;11.30;91.90;;;;;;5033906;28;20415;-78
2023/04/14 01:05:55;;;;;;;0.80;0.20;;;11.20;91.90;;;;;;5034162;28;20138;-78
2023/04/14 01:08:21;;;;;;;0.30;0.30;;;11.20;91.90;;;;;;5033093;28;20134;-78
2023/04/14 01:11:23;;;;;;;0.20;0.20;;;11.30;91.90;;;;;;5033178;28;20025;-78
2023/04/14 01:13:56;;;;;;;0.40;0.28;;;11.30;91.80;;;;;;5009812;28;20553;-76
2023/04/14 01:16:33;;;;;;;0.20;0.10;;;11.30;91.80;;;;;;5031997;28;20049;-77
2023/04/14 01:19:05;;;;;;;0.73;0.20;;;11.30;91.90;;;;;;5032987;28;20037;-76
2023/04/14 01:21:36;;;;;;;0.45;0.25;;;11.20;91.90;;;;;;5025348;28;20021;-76
2023/04/14 01:24:56;;;;;;;0.30;0.20;;;11.20;91.90;;;;;;5031626;28;20485;-76
2023/04/14 01:27:56;;;;;;;0.57;0.20;;;11.30;91.90;;;;;;4945938;29;21572;-77
2023/04/14 01:30:46;;;;;;;0.30;0.20;;;11.30;91.80;;;;;;5031906;28;20129;-78
2023/04/14 01:33:17;;;;;;;0.22;0.20;;;11.30;91.80;;;;;;5032109;28;20409;-79
2023/04/14 01:35:50;;;;;;;0.20;0.20;;;11.30;91.90;;;;;;5032369;28;20035;-78
2023/04/14 01:38:28;;;;;;;0.22;0.20;;;11.30;91.90;;;;;;5031764;28;20570;-78
2023/04/14 01:41:05;;;;;;;0.35;0.20;;;11.20;91.90;;;;;;5036178;28;20049;-77
2023/04/14 01:43:33;;;;;;;0.30;0.20;;;11.20;91.90;;;;;;5034783;28;20029;-77
2023/04/14 01:46:05;;;;;;;1.75;0.30;;;11.20;91.90;;;;;;5030596;28;20057;-76
2023/04/14 01:48:32;;;;;;;0.20;0.20;;;11.10;92.10;;;;;;5026473;28;20013;-76
2023/04/14 01:51:01;;;;;;;0.30;0.20;;;11.10;92.10;;;;;;5031302;28;20037;-81
2023/04/14 01:53:29;;;;;;;0.30;0.20;;;11.10;92.10;;;;;;5031809;28;20073;-81
2023/04/14 01:55:56;;;;;;;0.38;0.20;;;11.10;92.20;;;;;;5031649;28;20064;-81
2023/04/14 01:58:24;;;;;;;0.30;0.25;;;11.20;92.20;;;;;;5031953;28;20498;-80
2023/04/14 02:00:51;;;;;;;0.45;0.40;;;11.10;92.10;;;;;;5032717;28;20025;-80
2023/04/14 02:03:19;;;;;;;1.70;0.43;;;11.10;92.10;;;;;;5032712;28;20037;-81
2023/04/14 02:05:46;;;;;;;0.63;0.40;;;11.10;92.20;;;;;;5032142;28;20112;-81
2023/04/14 02:08:13;;;;;;;0.38;0.30;;;11.10;92.20;;;;;;5032150;28;20087;-80
2023/04/14 02:10:42;;;;;;;0.50;0.38;;;11.00;92.30;;;;;;5008387;28;20069;-80
2023/04/14 02:13:10;;;;;;;1.20;0.30;;;11.10;92.30;;;;;;5031554;28;20021;-80
2023/04/14 02:15:36;;;;;;;0.55;0.40;;;11.00;92.30;;;;;;5032859;28;20037;-81
2023/04/14 02:18:05;;;;;;;0.57;0.30;;;11.10;92.40;;;;;;5031723;28;20028;-80
2023/04/14 02:20:32;;;;;;;1.60;0.32;;;11.10;92.40;;;;;;5025163;28;20029;-80
2023/04/14 02:22:58;;;;;;;0.30;0.30;;;11.10;92.40;;;;;;5032551;28;20096;-80
2023/04/14 02:25:28;;;;;;;0.60;0.30;;;11.00;92.40;;;;;;5031551;28;20472;-80
2023/04/14 02:27:57;;;;;;;0.30;0.30;;;11.00;92.30;;;;;;5031586;28;20038;-80
2023/04/14 02:30:32;;;;;;;0.55;0.30;;;11.00;92.30;;;;;;5032164;28;20033;-80
2023/04/14 02:33:08;;;;;;;1.70;0.47;;;11.00;92.30;;;;;;5031621;28;20116;-80
2023/04/14 02:35:39;;;;;;;0.20;0.20;;;10.90;92.30;;;;;;5027583;28;20033;-80
2023/04/14 02:38:17;;;;;;;0.20;0.20;;;10.90;92.40;;;;;;5031761;28;20029;-80
2023/04/14 02:40:43;;;;;;;0.30;0.30;;;10.90;92.30;;;;;;5030185;28;20033;-79
2023/04/14 02:43:28;;;;;;;0.20;0.20;;;10.90;92.40;;;;;;5033680;28;20131;-79
2023/04/14 02:45:55;;;;;;;0.38;0.30;;;10.90;92.50;;;;;;5032309;28;20479;-80
2023/04/14 02:48:24;;;;;;;0.45;0.20;;;10.80;92.50;;;;;;5030966;28;20106;-80
2023/04/14 02:50:53;;;;;;;0.20;0.20;;;10.80;92.50;;;;;;5030300;28;20041;-80
2023/04/14 02:53:24;;;;;;;0.50;0.20;;;10.70;92.60;;;;;;5031726;28;20180;-81
2023/04/14 02:55:51;;;;;;;0.30;0.13;;;10.70;92.50;;;;;;5014071;28;20026;-79
2023/04/14 02:58:16;;;;;;;0.57;0.20;;;10.70;92.60;;;;;;5031829;28;20099;-80
2023/04/14 03:00:43;;;;;;;0.20;0.10;;;10.60;92.80;;;;;;5031525;28;20458;-80
2023/04/14 03:03:11;;;;;;;1.65;0.30;;;10.60;92.70;;;;;;5031326;28;20107;-80
2023/04/14 03:05:39;;;;;;;0.20;0.20;;;10.60;92.80;;;;;;5030861;28;20032;-80
2023/04/14 03:08:07;;;;;;;0.40;0.10;;;10.70;92.60;;;;;;5030877;28;20032;-80
2023/04/14 03:10:33;;;;;;;0.40;0.20;;;10.70;92.70;;;;;;5017716;28;20029;-80
2023/04/14 03:13:02;;;;;;;0.82;0.30;;;10.70;92.50;;;;;;5035401;28;20486;-80
2023/04/14 03:15:30;;;;;;;0.25;0.20;;;10.80;92.70;;;;;;5035292;28;20017;-80
2023/04/14 03:17:57;;;;;;;1.30;0.30;;;10.60;92.70;;;;;;5035077;28;20024;-81
2023/04/14 03:20:24;;;;;;;0.63;0.40;;;10.60;92.70;;;;;;5035013;28;20025;-81
2023/04/14 03:23:00;;;;;;;0.17;0.10;;;10.60;92.80;;;;;;5034841;28;20022;-82
2023/04/14 03:25:27;;;;;;;1.92;0.45;;;10.60;92.70;;;;;;5035145;28;20096;-81
2023/04/14 03:27:57;;;;;;;3.10;0.25;;;10.60;92.80;;;;;;5035246;28;20537;-81
2023/04/14 03:30:24;;;;;;;0.60;0.20;;;10.70;92.70;;;;;;5034066;28;20052;-81
2023/04/14 03:32:52;;;;;;;0.10;0.10;;;10.60;92.70;;;;;;5034190;28;20018;-81
2023/04/14 03:35:21;;;;;;;0.55;0.20;;;10.70;92.60;;;;;;5034128;28;20061;-81
2023/04/14 03:37:49;;;;;;;0.70;0.30;;;10.70;92.60;;;;;;5034362;28;20351;-81
2023/04/14 03:40:16;;;;;;;0.20;0.20;;;10.70;92.50;;;;;;5033700;28;20040;-81
2023/04/14 03:42:44;;;;;;;0.20;0.20;;;10.80;92.50;;;;;;5034259;28;20030;-81
2023/04/14 03:45:11;;;;;;;0.38;0.20;;;10.80;92.50;;;;;;5034394;28;20104;-81
2023/04/14 03:47:37;;;;;;;1.70;0.30;;;10.80;92.60;;;;;;5034721;28;20392;-81
2023/04/14 03:50:07;;;;;;;0.40;0.30;;;10.80;92.60;;;;;;5034410;28;20064;-80
2023/04/14 03:52:35;;;;;;;1.55;0.30;;;10.80;92.50;;;;;;5035737;28;20053;-80
2023/04/14 03:55:05;;;;;;;0.55;0.50;;;10.70;92.60;;;;;;5033881;28;20041;-80
2023/04/14 03:57:31;;;;;;;0.20;0.20;;;10.60;92.80;;;;;;5027497;28;20363;-80
2023/04/14 04:00:00;;;;;;;2.50;0.60;;;10.70;92.70;;;;;;5034588;28;20025;-80
2023/04/14 04:02:28;;;;;;;0.40;0.25;;;10.60;92.90;;;;;;5033629;28;20040;-80
2023/04/14 04:04:55;;;;;;;1.50;0.50;;;10.70;92.90;;;;;;5035040;28;20354;-80
2023/04/14 04:07:22;;;;;;;0.45;0.45;;;10.60;92.90;;;;;;5033950;28;20029;-80
2023/04/14 04:09:49;;;;;;;1.48;0.38;;;10.60;92.90;;;;;;5034449;28;20075;-80
2023/04/14 04:12:18;;;;;;;1.23;0.68;;;10.60;93.00;;;;;;5033498;28;20037;-80
2023/04/14 04:14:44;;;;;;;0.55;0.40;;;10.60;93.10;;;;;;5034618;28;20045;-81
2023/04/14 04:17:13;;;;;;;0.73;0.40;;;10.60;93.00;;;;;;5034111;28;20029;-81
2023/04/14 04:19:41;;;;;;;1.75;0.70;;;10.60;93.00;;;;;;5033574;28;20037;-81
2023/04/14 04:22:10;;;;;;;0.90;0.65;;;10.60;93.00;;;;;;5039278;28;20020;-82
2023/04/14 04:24:39;;;;;;;1.80;0.50;;;10.60;93.20;;;;;;5032500;28;20451;-82
2023/04/14 04:27:06;;;;;;;1.52;0.57;;;10.50;93.20;;;;;;5034110;28;20033;-82
2023/04/14 04:29:32;;;;;;;0.73;0.50;;;10.60;93.10;;;;;;5033302;28;20033;-82
2023/04/14 04:31:59;;;;;;;0.60;0.43;;;10.50;93.30;;;;;;5039373;28;20040;-81
2023/04/14 04:34:25;;;;;;;3.03;0.98;;;10.50;93.30;;;;;;5038965;28;20087;-80
2023/04/14 04:36:52;;;;;;;0.60;0.60;;;10.50;93.10;;;;;;5015721;28;20025;-80
2023/04/14 04:39:18;;;;;;;2.42;0.55;;;10.60;93.00;;;;;;5032684;28;20064;-80
2023/04/14 04:41:44;;;;;;;0.63;0.57;;;10.60;93.00;;;;;;5037188;28;20061;-81
2023/04/14 04:44:10;;;;;;;0.63;0.50;;;10.60;92.90;;;;;;5033709;28;20416;-81
2023/04/14 04:46:47;;;;;;;1.58;0.70;;;10.60;93.00;;;;;;5033587;28;20112;-80
2023/04/14 04:49:16;;;;;;;0.73;0.65;;;10.50;93.10;;;;;;5033403;28;20036;-80
2023/04/14 04:51:42;;;;;;;0.70;0.70;;;10.50;93.10;;;;;;5037386;28;20112;-82
2023/04/14 04:54:08;;;;;;;0.93;0.70;;;10.50;93.20;;;;;;5033101;28;20052;-82
2023/04/14 04:56:33;;;;;;;1.85;1.45;;;10.50;93.40;;;;;;5015270;28;20109;-82
2023/04/14 04:59:00;;;;;;;0.80;0.65;;;10.50;93.50;;;;;;5033278;28;20033;-82
2023/04/14 05:01:26;;;;;;;1.48;0.50;;;10.50;93.40;;;;;;5035459;28;20033;-83
2023/04/14 05:03:52;;;;;;;1.15;0.70;;;10.50;93.30;;;;;;5033089;28;20025;-83
2023/04/14 05:06:18;;;;;;;1.15;0.80;;;10.50;93.30;;;;;;5033055;28;20462;-82
2023/04/14 05:08:44;;;;;;;1.40;0.68;;;10.60;93.20;;;;;;5031571;28;20048;-80
2023/04/14 05:11:09;;;;;;;1.05;0.80;;;10.60;93.30;;;;;;5034359;28;20048;-81
2023/04/14 05:13:35;;;;;;;1.27;0.70;;;10.60;93.30;;;;;;5031944;28;20078;-77
2023/04/14 05:16:05;;;;;;;1.15;0.80;;;10.60;93.30;;;;;;5040204;28;20034;-77
2023/04/14 05:18:31;;;;;;;1.00;0.47;;;10.60;93.30;;;;;;5033819;28;20025;-77
2023/04/14 05:21:04;;;;;;;0.70;0.40;;;10.70;93.30;;;;;;5038087;28;20021;-78
2023/04/14 05:23:35;;;;;;;0.55;0.40;;;10.70;93.20;;;;;;5015772;28;20411;-79
2023/04/14 05:26:02;;;;;;;2.05;0.82;;;10.60;93.30;;;;;;5032652;28;20042;-78
2023/04/14 05:28:28;;;;;;;0.60;0.60;;;10.60;93.30;;;;;;5036904;28;20034;-77
2023/04/14 05:30:54;;;;;;;1.30;0.77;;;10.60;93.20;;;;;;5031517;28;20116;-76
2023/04/14 05:33:20;;;;;;;0.88;0.60;;;10.60;93.10;;;;;;5031821;28;20034;-77
2023/04/14 05:35:46;;;;;;;1.40;0.77;;;10.60;93.20;;;;;;5032146;28;20041;-77
2023/04/14 05:38:13;;;;;;;0.80;0.80;;;10.60;93.20;;;;;;5031891;28;20036;-77
2023/04/14 05:40:39;;;;;;;0.65;0.60;;;10.60;93.30;;;;;;5017650;28;20040;-77
2023/04/14 05:43:05;;;;;;;1.08;0.70;;;10.70;93.10;;;;;;5032269;28;20075;-76
2023/04/14 05:45:31;;;;;;;0.60;0.60;;;10.70;93.10;;;;;;5015509;28;20033;-76
2023/04/14 05:47:57;;;;;;;1.10;0.85;;;10.70;93.00;;;;;;5036769;28;20030;-77
2023/04/14 05:50:22;;;;;;;1.27;0.80;;;10.70;93.00;;;;;;5031916;28;20112;-82
2023/04/14 05:52:48;;;;;;;1.20;0.80;;;10.80;93.10;;;;;;5042529;28;20052;-81
2023/04/14 05:55:14;;;;;;;1.20;1.08;;;10.80;93.00;;;;;;5014989;28;20041;-81
2023/04/14 05:57:40;;;;;;;1.10;0.80;;;10.80;93.00;;;;;;5033698;28;20025;-82
2023/04/14 06:00:07;;;;;;;1.48;0.80;;;10.90;93.10;;;;;;5045292;28;20160;-82
2023/04/14 06:02:33;;;;;;;1.83;1.13;;;10.90;93.00;;;;;;5041415;28;20022;-83
2023/04/14 06:04:58;;;;;;;2.17;1.40;;;10.90;92.90;;;;;;5030404;28;20022;-82
2023/04/14 06:07:24;;;;;;;2.03;1.50;;;10.90;92.90;;;;;;5032736;28;20029;-77
2023/04/14 06:09:50;;;;;;;0.90;0.70;;;11.00;92.80;;;;;;5031771;28;20061;-79
2023/04/14 06:12:16;;;;;;;2.42;0.70;;;11.00;92.60;;;;;;5031822;28;20072;-77
2023/04/14 06:14:41;;;;;;;1.10;0.80;;;11.00;92.60;;;;;;5030705;28;20071;-78
2023/04/14 06:17:08;;;;;;;0.98;0.88;;;11.00;92.50;;;;;;5014487;28;20032;-79
2023/04/14 06:19:34;;;;;;;1.20;0.80;;;10.90;92.40;;;;;;5032826;28;20037;-86
2023/04/14 06:21:59;;;;;;;0.70;0.60;;;10.90;92.40;;;;;;5032477;28;20026;-81
2023/04/14 06:24:25;;;;;;;1.23;0.60;;;10.90;92.40;;;;;;5032312;28;20447;-84
2023/04/14 06:26:51;;;;;;;2.67;0.60;;;10.90;92.40;;;;;;5031860;28;20132;-82
2023/04/14 06:29:17;;;;;;;0.65;0.40;;;10.90;92.40;;;;;;5031183;28;20026;-82
2023/04/14 06:31:43;;;;;;;1.65;0.70;;;10.90;92.40;;;;;;5032082;28;20065;-82
2023/04/14 06:34:08;;;;;;;0.82;0.40;;;10.90;92.40;;;;;;5030772;28;20061;-82
2023/04/14 06:36:34;;;;;;;0.52;0.40;;;11.00;92.50;;;;;;5032745;28;20055;-82
2023/04/14 06:39:00;;;;;;;1.40;0.32;;;11.00;92.40;;;;;;5032853;28;20044;-82
2023/04/14 06:41:26;;;;;;;0.82;0.32;;;11.10;92.40;;;;;;5002257;28;20030;-82
2023/04/14 06:43:52;;;;;;;0.40;0.35;;;11.10;92.40;;;;;;5036478;28;20502;-81
2023/04/14 06:46:17;;;;;;;0.30;0.30;;;11.10;92.10;;;;;;5018523;28;20025;-81
2023/04/14 06:48:43;;;;;;;0.20;0.20;;;11.10;92.10;;;;;;5036325;28;20044;-81
2023/04/14 06:51:11;;;;;;;0.68;0.30;;;11.10;92.10;;;;;;5037718;28;20383;-81
2023/04/14 06:53:37;;;;;;;0.77;0.30;;;11.20;92.10;;;;;;5037913;28;20053;-80
2023/04/14 06:56:05;;;;;;;1.05;0.38;;;11.20;92.20;;;;;;5018752;28;20331;-76
2023/04/14 06:58:31;;;;;;;0.88;0.30;;;11.30;92.30;;;;;;5036430;28;20034;-76
2023/04/14 07:00:57;;;;;;;0.28;0.22;;;11.30;92.40;;;;;;5035172;28;20022;-75
2023/04/14 07:03:24;;;;;;;0.40;0.40;;;11.40;92.30;;;;;;5036340;28;20029;-76
2023/04/14 07:05:49;;;;;;;0.35;0.35;;;11.40;92.20;;;;;;5035849;28;20037;-76
2023/04/14 07:08:16;;;;;;;0.20;0.20;;;11.40;92.10;;;;;;5035772;28;20083;-75
2023/04/14 07:10:42;;;;;;;0.32;0.20;;;11.40;92.20;;;;;;5044388;28;20047;-75
2023/04/14 07:13:08;;;;;;;0.80;0.40;;;11.40;92.20;;;;;;5042468;28;20514;-75
2023/04/14 07:15:33;;;;;;;0.55;0.25;;;11.50;92.10;;;;;;5034864;28;20072;-76
2023/04/14 07:17:59;;;;;;;0.43;0.30;;;11.50;92.00;;;;;;5033482;28;20041;-76
2023/04/14 07:20:25;;;;;;;0.85;0.40;;;11.60;91.80;;;;;;5032568;28;20453;-76
2023/04/14 07:22:50;;;;;;;0.40;0.40;;;11.60;91.70;;;;;;5015550;28;20102;-77
2023/04/14 07:25:16;;;;;;;0.63;0.30;;;11.60;91.60;;;;;;5033120;28;20032;-75
2023/04/14 07:27:42;;;;;;;0.50;0.30;;;11.60;91.70;;;;;;5031093;28;20439;-75
2023/04/14 07:30:08;;;;;;;1.15;0.30;;;11.60;91.40;;;;;;5028569;28;20065;-75
2023/04/14 07:32:34;;;;;;;0.30;0.30;;;11.60;91.40;;;;;;5028220;28;20027;-76
2023/04/14 07:34:59;;;;;;;0.60;0.20;;;11.50;91.40;;;;;;5025355;28;20029;-75
2023/04/14 07:37:25;;;;;;;0.70;0.40;;;11.60;91.50;;;;;;5032610;28;20100;-75
2023/04/14 07:39:51;;;;;;;0.47;0.20;;;11.60;91.60;;;;;;5030862;28;20092;-75
2023/04/14 07:42:17;;;;;;;0.60;0.35;;;11.60;91.40;;;;;;5037374;28;20044;-76
2023/04/14 07:44:42;;;;;;;0.88;0.38;;;11.70;91.40;;;;;;5041275;28;20075;-76
2023/04/14 07:47:08;;;;;;;0.25;0.25;;;11.60;91.30;;;;;;5031969;28;20077;-76
2023/04/14 07:49:35;;;;;;;1.15;0.30;;;11.70;91.40;;;;;;5030207;28;20033;-77
2023/04/14 07:52:01;;;;;;;0.80;0.30;;;11.70;91.50;;;;;;5026680;28;20033;-76
2023/04/14 07:54:27;;;;;;;0.25;0.20;;;11.80;91.60;;;;;;4991329;28;20026;-80
2023/04/14 07:56:53;;;;;;;0.75;0.35;;;11.80;91.50;;;;;;5011535;28;20090;-80
2023/04/14 07:59:19;;;;;;;0.20;0.20;;;11.80;91.50;;;;;;5010148;28;20049;-79
2023/04/14 08:01:45;;;;;;;0.70;0.30;;;11.90;91.60;;;;;;4993969;28;20045;-79
2023/04/14 08:04:11;;;;;;;0.55;0.47;;;12.00;91.50;;;;;;5008791;28;20045;-75
2023/04/14 08:06:36;;;;;;;0.50;0.30;;;12.00;91.40;;;;;;5011528;28;20396;-75
2023/04/14 08:09:02;;;;;;;0.47;0.32;;;11.90;91.30;;;;;;5003612;28;20116;-77
2023/04/14 08:11:28;;;;;;;2.40;0.50;;;12.00;91.20;;;;;;5009671;28;20561;-77
2023/04/14 08:13:54;;;;;;;0.82;0.30;;;12.00;91.20;;;;;;5009502;28;20704;-76
2023/04/14 08:16:20;;;;;;;1.48;0.60;;;12.00;91.30;;;;;;5012160;28;20069;-77
2023/04/14 08:18:45;;;;;;;0.30;0.30;;;12.00;91.40;;;;;;5011221;28;20080;-77
2023/04/14 08:21:11;;;;;;;0.35;0.30;;;12.00;91.30;;;;;;5009020;28;20026;-76
2023/04/14 08:23:37;;;;;;;1.08;0.43;;;12.00;91.20;;;;;;4990627;28;20030;-77
2023/04/14 08:26:03;;;;;;;0.93;0.60;;;12.00;91.10;;;;;;5012658;28;20111;-77
2023/04/14 08:28:29;;;;;;;1.45;0.60;;;12.10;91.40;;;;;;5012544;28;20034;-77
2023/04/14 08:30:55;;;;;;;0.47;0.47;;;12.10;91.30;;;;;;5007947;28;20404;-76
2023/04/14 08:33:21;;;;;;;0.50;0.40;;;12.10;91.20;;;;;;4991237;28;20030;-77
2023/04/14 08:35:46;;;;;;;0.38;0.28;;;12.20;91.20;;;;;;5006548;28;20037;-77
2023/04/14 08:38:12;;;;;;;0.35;0.35;;;12.20;91.20;;;;;;4995535;28;20455;-82
2023/04/14 08:40:40;;;;;;;0.68;0.40;;;12.20;91.20;;;;;;5010253;28;20040;-81
2023/04/14 08:43:06;;;;;;;0.65;0.57;;;12.30;91.30;;;;;;5008269;28;20673;-81
2023/04/14 08:45:33;;;;;;;1.10;0.73;;;12.40;91.40;;;;;;4991343;28;20107;-81
2023/04/14 08:47:59;;;;;;;1.50;0.63;;;12.40;91.30;;;;;;4994798;28;20187;-81
2023/04/14 08:50:31;;;;;;;1.10;0.45;;;12.50;91.10;;;;;;5012367;28;20108;-82
2023/04/14 08:53:01;;;;;;;0.60;0.50;;;12.50;90.90;;;;;;5021859;28;20043;-82
2023/04/14 08:55:28;;;;;;;0.47;0.40;;;12.50;90.60;;;;;;5032279;28;20022;-82
2023/04/14 08:57:55;;;;;;;0.40;0.40;;;12.50;90.40;;;;;;5014655;28;20025;-82
2023/04/14 09:00:21;;;;;;;1.02;0.60;;;12.50;90.30;;;;;;5031922;28;20026;-82
2023/04/14 09:02:49;;;;;;;1.00;0.60;;;12.50;90.30;;;;;;5031994;28;20027;-82
2023/04/14 09:05:14;;;;;;;1.15;0.90;;;12.50;90.30;;;;;;5031290;28;20041;-83
2023/04/14 09:07:49;;;;;;;0.70;0.70;;;12.50;90.50;;;;;;5024410;28;20032;-82
2023/04/14 09:10:15;;;;;;;0.75;0.50;;;12.50;90.60;;;;;;5011180;28;20067;-82
2023/04/14 09:12:41;;;;;;;1.30;0.98;;;12.50;90.80;;;;;;5032031;28;20123;-85
2023/04/14 09:15:08;;;;;;;1.65;0.80;;;12.60;90.70;;;;;;5013264;28;20825;-82
2023/04/14 09:17:35;;;;;;;1.77;0.80;;;12.70;90.70;;;;;;5011829;28;20022;-77
2023/04/14 09:20:01;;;;;;;1.38;1.00;;;12.80;90.70;;;;;;5009475;28;20044;-77
2023/04/14 09:22:27;;;;;;;2.38;0.95;;;12.90;90.70;;;;;;5033280;28;20033;-77
2023/04/14 09:24:53;;;;;;;1.20;1.08;;;13.00;90.70;;;;;;5014059;28;20072;-82
2023/04/14 09:27:18;;;;;;;1.60;1.30;;;13.10;90.70;;;;;;5031918;28;20033;-82
2023/04/14 09:29:45;;;;;;;2.55;1.13;;;13.10;90.50;;;;;;5033263;28;20036;-77
2023/04/14 09:32:11;;;;;;;1.80;1.13;;;13.20;90.40;;;;;;5012894;28;20398;-77
2023/04/14 09:34:53;;;;;;;1.58;1.10;;;13.30;90.40;;;;;;5030452;28;20033;-77
2023/04/14 09:37:20;;;;;;;0.93;0.90;;;13.40;90.40;;;;;;5030675;28;20029;-82
2023/04/14 09:39:51;;;;;;;1.35;0.90;;;13.50;90.20;;;;;;5013192;28;20033;-82
2023/04/14 09:42:17;;;;;;;0.90;0.80;;;13.50;90.00;;;;;;5030736;28;20495;-77
2023/04/14 09:44:57;;;;;;;0.60;0.60;;;13.60;89.70;;;;;;5028562;28;20450;-77
2023/04/14 09:47:24;;;;;;;1.27;1.00;;;13.60;89.10;;;;;;5029815;28;20539;-77
2023/04/14 09:49:58;;;;;;;0.80;0.70;;;13.60;88.60;;;;;;5029408;28;20123;-76
2023/04/14 09:52:45;;;;;;;1.63;0.88;;;13.70;88.40;;;;;;5010679;28;20135;-76
2023/04/14 09:55:12;;;;;;;0.95;0.65;;;13.70;88.20;;;;;;5030361;28;20116;-77
2023/04/14 09:57:42;;;;;;;1.80;0.70;;;13.70;87.90;;;;;;5011240;28;20036;-77
2023/04/14 10:00:16;;;;;;;0.73;0.70;;;13.70;87.30;;;;;;5029363;28;20025;-78
2023/04/14 10:02:49;;;;;;;0.80;0.50;;;13.80;87.30;;;;;;5028343;28;20036;-77
2023/04/14 10:05:18;;;;;;;0.60;0.60;;;13.80;85.90;;;;;;5009901;28;20041;-77
2023/04/14 10:07:44;;;;;;;0.65;0.60;;;13.80;85.50;;;;;;5028875;28;20033;-77
2023/04/14 10:10:12;;;;;;;1.60;1.00;;;13.80;86.10;;;;;;5028940;28;20095;-82
2023/04/14 10:12:41;;;;;;;1.38;1.02;;;13.80;85.00;;;;;;5029041;28;20044;-83
2023/04/14 10:15:09;;;;;;;0.98;0.63;;;13.90;85.30;;;;;;5028745;28;20099;-83
2023/04/14 10:17:36;;;;;;;0.98;0.88;;;13.90;85.30;;;;;;5030796;28;20757;-84
2023/04/14 10:20:03;;;;;;;1.88;0.90;;;13.90;84.40;;;;;;5030491;28;20065;-85
2023/04/14 10:22:29;;;;;;;1.58;0.80;;;14.00;85.30;;;;;;5031471;28;20025;-84
2023/04/14 10:24:57;;;;;;;1.17;0.60;;;14.20;85.10;;;;;;5031456;28;20426;-84
2023/04/14 10:27:27;;;;;;;0.95;0.60;;;14.30;84.70;;;;;;5030969;28;20676;-83
2023/04/14 10:29:53;;;;;;;0.80;0.60;;;14.40;83.90;;;;;;5030449;28;20037;-84
2023/04/14 10:32:20;;;;;;;0.57;0.43;;;14.50;82.60;;;;;;5031022;28;20132;-83
2023/04/14 10:35:06;;;;;;;3.17;0.50;;;14.70;83.00;;;;;;5030326;28;20055;-82
2023/04/14 10:37:32;;;;;;;1.17;0.88;;;14.80;82.70;;;;;;5029645;28;20760;-82
2023/04/14 10:39:59;;;;;;;0.80;0.80;;;14.90;81.80;;;;;;5031320;28;20029;-82
2023/04/14 10:42:27;;;;;;;0.52;0.52;;;14.90;81.20;;;;;;5031331;28;20028;-82
2023/04/14 10:45:06;;;;;;;0.98;0.52;;;14.90;80.80;;;;;;5030230;28;20025;-82
2023/04/14 10:47:34;;;;;;;0.85;0.60;;;15.00;81.90;;;;;;5031046;28;20057;-82
2023/04/14 10:50:11;;;;;;;1.85;0.80;;;15.10;81.90;;;;;;5030870;28;20056;-82
2023/04/14 10:52:38;;;;;;;1.25;0.90;;;15.20;82.10;;;;;;5030991;28;20128;-82
2023/04/14 10:55:08;;;;;;;0.55;0.43;;;15.30;82.00;;;;;;5030570;28;20042;-81
2023/04/14 10:57:44;;;;;;;;;;;15.30;80.50;;;;;;5031226;28;20025;-80
2023/04/14 11:00:19;;;;;;;1.30;0.60;;;15.40;79.70;;;;;;5030512;28;19920;-80
2023/04/14 11:02:57;;;;;;;0.50;0.40;;;15.30;79.00;;;;;;5028925;28;20045;-78
2023/04/14 11:05:23;;;;;;;0.60;0.60;;;15.30;79.20;;;;;;5029856;28;20071;-82
2023/04/14 11:07:54;;;;;;;1.77;0.52;;;15.30;78.60;;;;;;5028893;28;20046;-83
2023/04/14 11:10:21;;;;;;;0.63;0.57;;;15.30;78.30;;;;;;5028790;28;20025;-82
2023/04/14 11:13:04;;;;;;;0.40;0.40;;;15.40;77.90;;;;;;5011122;28;20041;-82
2023/04/14 11:15:43;;;;;;;0.95;0.45;;;15.50;78.10;;;;;;5026821;28;20495;-83
2023/04/14 11:18:31;;;;;;;0.40;0.40;;;15.70;76.90;;;;;;5010775;28;20030;-82
2023/04/14 11:21:12;;;;;;;0.50;0.40;;;15.80;76.50;;;;;;5028604;28;20025;-82
2023/04/14 11:23:38;;;;;;;0.65;0.40;;;16.00;76.20;;;;;;5028630;28;20033;-83
2023/04/14 11:26:08;;;;;;;1.55;0.45;;;16.10;75.80;;;;;;5028970;28;20044;-83
2023/04/14 11:28:41;;;;;;;0.55;0.30;;;16.30;74.90;;;;;;5029733;28;20033;-83
2023/04/14 11:31:08;;;;;;;1.05;0.50;;;16.50;74.40;;;;;;5032064;28;20033;-82
2023/04/14 11:33:40;;;;;;;1.50;0.60;;;16.80;73.90;;;;;;5033632;28;20029;-84
2023/04/14 11:36:08;;;;;;;2.03;0.50;;;17.10;73.20;;;;;;5030627;28;20421;-82
2023/04/14 11:38:39;;;;;;;0.50;0.30;;;17.40;72.00;;;;;;5010978;28;20421;-82
2023/04/14 11:41:05;;;;;;;0.35;0.30;;;17.50;70.80;;;;;;5032069;28;20089;-82
2023/04/14 11:43:31;;;;;;;0.40;0.30;;;17.60;70.20;;;;;;5031212;28;20023;-81
2023/04/14 11:45:59;;;;;;;0.98;0.38;;;17.80;69.90;;;;;;5029180;28;20378;-78
2023/04/14 11:48:27;;;;;;;0.35;0.30;;;18.20;69.20;;;;;;5033463;28;20018;-77
2023/04/14 11:50:54;;;;;;;0.65;0.40;;;18.80;65.30;;;;;;5033663;28;20048;-77
2023/04/14 11:53:21;;;;;;;0.60;0.38;;;19.60;65.30;;;;;;5034293;28;20123;-77
2023/04/14 11:55:49;;;;;;;0.50;0.40;;;20.40;62.90;;;;;;5034535;28;20502;-77
2023/04/14 11:58:23;;;;;;;1.55;0.40;;;20.80;59.00;;;;;;5034109;28;20087;-82
2023/04/14 12:00:49;;;;;;;2.28;0.70;;;20.70;59.30;;;;;;5034917;28;20034;-83
2023/04/14 12:03:15;;;;;;;1.80;0.70;;;20.50;60.00;;;;;;5035103;28;20032;-82
2023/04/14 12:05:41;;;;;;;0.88;0.52;;;20.20;58.20;;;;;;5034190;28;20037;-82
2023/04/14 12:08:08;;;;;;;2.45;0.32;;;19.90;60.10;;;;;;5033545;28;20021;-82
2023/04/14 12:10:41;;;;;;;0.57;0.30;;;19.80;60.00;;;;;;5034626;28;20033;-84
2023/04/14 12:13:10;;;;;;;0.65;0.50;;;19.70;59.10;;;;;;5033811;28;20030;-83
2023/04/14 12:15:45;;;;;;;0.28;0.25;;;19.90;59.10;;;;;;5033711;28;20038;-83
2023/04/14 12:18:14;;;;;;;0.80;0.45;;;20.30;56.40;;;;;;5029818;28;20022;-83
2023/04/14 12:21:01;;;;;;;0.50;0.30;;;20.80;56.40;;;;;;5031342;28;20029;-83
2023/04/14 12:23:27;;;;;;;0.70;0.40;;;21.50;54.50;;;;;;5012333;28;20029;-79
2023/04/14 12:25:53;;;;;;;0.50;0.22;;;22.00;53.50;;;;;;5030660;28;20435;-79
2023/04/14 12:28:29;;;;;;;0.32;0.20;;;22.40;52.30;;;;;;5030570;28;20029;-79
2023/04/14 12:31:03;;;;;;;0.45;0.30;;;22.80;50.90;;;;;;5012253;28;20828;-77
2023/04/14 12:33:31;;;;;;;1.15;0.50;;;23.10;51.00;;;;;;5030846;28;20034;-79
2023/04/14 12:36:04;;;;;;;0.30;0.30;;;23.80;49.40;;;;;;5028777;28;20044;-79
2023/04/14 12:38:31;;;;;;;8.38;0.50;;;24.60;48.00;;;;;;5004239;28;20005;-78
2023/04/14 12:40:57;;;;;;;0.25;0.22;;;25.10;45.00;;;;;;5013642;28;20028;-78
2023/04/14 12:43:34;;;;;;;0.22;0.20;;;25.40;42.50;;;;;;5031544;28;20026;-79
2023/04/14 12:46:02;;;;;;;1.45;0.50;;;25.40;42.90;;;;;;5032093;28;20103;-79
2023/04/14 12:48:43;;;;;;;0.50;0.50;;;25.60;42.50;;;;;;5031771;28;20091;-79
2023/04/14 12:51:11;;;;;;;0.60;0.40;;;25.90;42.60;;;;;;5031740;28;20095;-79
2023/04/14 12:53:37;;;;;;;0.52;0.40;;;26.30;41.80;;;;;;5031190;28;20060;-80